Springville, UT (84663)

11:04 AM MST on February 19, 2017 (GMT -0700)
North Springville | | Change Station

Elev 4596 ft 40.18 °N, 111.61 °W | Updated 2 minutes ago

Rain
Rain
49.6 °F
Feels Like 50 °F
N
0.0
Wind Variable Wind from SE
Gusts 0.0 mph

Today
High -- | Low -- °F
--% Chance of Precip.
Yesterday
High -- | Low -- °F
Precip. -- in
Pressure 29.67 in
Visibility 10.0 miles
Clouds Mostly Cloudy 3900 ft
Overcast 4700 ft
Windchill 50 °F
Dew Point 37 °F
Humidity 65%
Rainfall 0.00 in
Snow Depth Not available.
7:13 AM 6:07 PM
Last Quarter, 41% visible
METAR KPVU 191756Z 16005KT 10SM -RA BKN039 OVC047 09/05 A2972 RMK AO2 SLP047 P0000 60000 T00890050 10094 20056 53008
Pressure 29.67 in
Visibility 10.0 miles
Clouds Mostly Cloudy 3900 ft
Overcast 4700 ft
Windchill 50 °F
Dew Point 37 °F
Humidity 65%
Rainfall 0.00 in
Snow Depth Not available.
7:13 AM 6:07 PM
Last Quarter, 41% visible
METAR KPVU 191756Z 16005KT 10SM -RA BKN039 OVC047 09/05 A2972 RMK AO2 SLP047 P0000 60000 T00890050 10094 20056 53008

Get Your Daily Forecast Email!

Thanks for signing up!

Be on the lookout for a verification email in your inbox.

You'll start receiving the daily forecast at 8 AM.

×

10-Day Weather Forecast

Almanac

Astronomy

Feb. 19, 2017 Rise Set
Actual Time
Civil Twilight
Nautical Twilight
Astronomical Twilight
Moon
Length of Visible Light
Length of Day
Tomorrow will be .
, % of the Moon is Illuminated

Today's Extremes

State Highs State Lows

Community

WunderPhotos

Upload Photos

1,962,540 photos uploaded!

WunderBlog® & News

Nearby

Air Quality

  Air Quality AQ Index Pollutant
Not available.

Snow Depth

Station Depth Elevation

Earthquake Activity

City Distance Mag. Time & Date
Minimum magnitude displayed is 2.5.

Coastal Water Temperatures

Place Temperature

Stations

Nearby Weather Stations

Station Location Temp. Windchill Dew Point Humidity Wind Precip. Elev Updated Type
                   

Watches & Warnings

There are currently no watches in effect.